Météo des aéroports (METAR) proches de Ticheville

 

LFRG - St Gatien, France
Distance from station: N 52km
Mise à jour: 25/02/2018 22:00
clair
clair
 Wind from E
Vent: E 13 km/h
Température: -1°C
Wind Chill: -6°C
Point de rosée: -10°C
Humidité: 51%
Baromètre: 1024 hPa
Résumé: clair
Visibility: greater than 10 km
2018/02/25 21:00 LFRG 252100Z AUTO 08007KT 050V120 CAVOK M01/M10 Q1024 NOSIG
LFRK - Caen/Carpiquet(A, France
Distance from station: ONO 60km
Mise à jour: 25/02/2018 22:00
clair
clair
 Wind from ENE
Vent: ENE 17 km/h
Température: 0°C
Wind Chill: -4°C
Point de rosée: -8°C
Humidité: 55%
Baromètre: 1024 hPa
Résumé: clair
Visibility: greater than 10 km
2018/02/25 21:00 LFRK 252100Z AUTO 07009KT CAVOK 00/M08 Q1024 NOSIG
 
LFOH - Le Havre/Octevil, France
Distance from station: NNO 69km
Mise à jour: 25/02/2018 22:00
clair
clair
 Wind from ENE
Vent: ENE 20 km/h
Température: -1°C
Wind Chill: -7°C
Point de rosée: -9°C
Humidité: 55%
Baromètre: 1024 hPa
Résumé: clair
Visibility: greater than 10 km
2018/02/25 21:00 LFOH 252100Z AUTO 06011KT CAVOK M01/M09 Q1024
LFOE - Evreux/Fauville, France
Distance from station: E 70km
Mise à jour: 25/02/2018 22:00
clair
clair
 Wind from ENE
Vent: ENE 20 km/h
Température: -1°C
Wind Chill: -7°C
Point de rosée: -11°C
Humidité: 47%
Baromètre: 1023 hPa
Résumé: clair
Visibility: greater than 10 km
2018/02/25 21:00 LFOE 252100Z AUTO 06011KT CAVOK M01/M11 Q1023
 
LFOP - Rouen/Boos (aut), France
Distance from station: NE 83km
Mise à jour: 25/02/2018 22:00
clair
clair
 Wind from ENE
Vent: ENE 19 km/h
Température: -2°C
Wind Chill: -8°C
Point de rosée: -10°C
Humidité: 55%
Baromètre: 1024 hPa
Résumé: clair
Visibility: greater than 10 km
2018/02/25 21:00 LFOP 252100Z AUTO 06010KT CAVOK M02/M10 Q1024 NOSIG
LFRM - Le Mans/Arnage(A, France
Distance from station: S 107km
Mise à jour: 25/02/2018 22:00
clair
clair
 Wind from NNE
Vent: NNE 13 km/h
Température: 0°C
Wind Chill: -4°C
Point de rosée: -10°C
Humidité: 47%
Baromètre: 1022 hPa
Résumé: clair
Visibility: greater than 10 km
2018/02/25 21:00 LFRM 252100Z AUTO 03007KT CAVOK M00/M10 Q1022 NOSIG